Time;durP1;ratioP1;P1;durP2;ratioP2;P2;SDS_P1;SDS_P2;PMS_P1;PMS_P2;Temp;Humidity;BMP_temperature;BMP_pressure;BME280_temperature;BME280_humidity;BME280_pressure;Samples;Min_cycle;Max_cycle;Signal;HPM_P1;HPM_P2
2022/12/29 00:01:01;;;;;;;2.53;1.30;;;11.50;99.90;;;;;;10091107;28;20025;-59
2022/12/29 00:05:57;;;;;;;1.63;1.20;;;11.60;99.90;;;;;;10094732;28;20045;-59
2022/12/29 00:10:47;;;;;;;2.17;1.00;;;11.70;99.90;;;;;;10086793;28;20021;-59
2022/12/29 00:15:38;;;;;;;1.70;1.45;;;11.70;99.90;;;;;;10096245;28;20029;-58
2022/12/29 00:36:00;;;;;;;3.88;1.85;;;11.80;99.90;;;;;;10084138;28;20060;-59
2022/12/29 00:46:00;;;;;;;1.60;1.10;;;11.90;99.90;;;;;;10092963;28;20040;-55
2022/12/29 00:50:55;;;;;;;3.38;1.15;;;12.00;99.90;;;;;;10086436;28;20056;-57
2022/12/29 00:55:46;;;;;;;1.40;0.85;;;12.00;99.90;;;;;;10090433;28;20121;-56
2022/12/29 01:00:37;;;;;;;3.28;1.33;;;12.00;99.90;;;;;;10087786;28;20029;-59
2022/12/29 01:05:27;;;;;;;1.55;0.88;;;12.00;99.90;;;;;;10097167;28;20098;-59
2022/12/29 01:10:18;;;;;;;1.55;0.98;;;12.10;99.90;;;;;;10084861;28;20376;-59
2022/12/29 01:15:10;;;;;;;1.63;0.80;;;12.40;99.90;;;;;;10093112;28;20066;-58
2022/12/29 01:20:02;;;;;;;3.83;0.93;;;12.60;99.90;;;;;;10091918;28;20045;-57
2022/12/29 01:24:53;;;;;;;2.20;1.10;;;12.60;99.90;;;;;;10094320;28;20017;-58
2022/12/29 01:29:44;;;;;;;2.58;0.90;;;12.60;99.90;;;;;;10089675;28;20462;-59
2022/12/29 01:34:34;;;;;;;3.15;1.30;;;12.70;99.90;;;;;;10087343;28;20066;-57
2022/12/29 01:39:25;;;;;;;1.95;0.80;;;12.60;99.90;;;;;;10072953;28;20033;-58
2022/12/29 01:44:50;;;;;;;1.52;0.82;;;12.70;99.90;;;;;;10095153;28;20033;-56
2022/12/29 01:49:41;;;;;;;3.00;1.23;;;12.70;99.90;;;;;;10089150;28;20045;-57
2022/12/29 01:54:46;;;;;;;1.65;0.80;;;12.60;99.90;;;;;;10086035;28;20779;-55
2022/12/29 01:59:45;;;;;;;1.40;0.80;;;12.50;99.90;;;;;;10081316;28;20029;-57
2022/12/29 02:04:40;;;;;;;6.00;0.85;;;12.50;99.90;;;;;;10088695;28;20033;-59
2022/12/29 02:09:31;;;;;;;2.83;0.80;;;12.50;99.90;;;;;;10080035;28;20167;-58
2022/12/29 02:14:21;;;;;;;1.33;0.80;;;12.50;99.90;;;;;;10090393;28;20100;-58
2022/12/29 02:19:15;;;;;;;2.00;0.80;;;12.50;99.90;;;;;;10087835;28;20056;-59
2022/12/29 02:24:25;;;;;;;1.30;0.80;;;12.50;99.90;;;;;;10090507;28;20013;-59
2022/12/29 02:29:34;;;;;;;1.35;0.63;;;12.60;99.90;;;;;;10089024;28;20041;-56
2022/12/29 02:34:46;;;;;;;2.20;0.82;;;12.50;99.90;;;;;;10087049;28;20029;-59
2022/12/29 02:39:43;;;;;;;0.80;0.80;;;12.50;99.90;;;;;;10072419;28;20650;-60
2022/12/29 02:44:49;;;;;;;1.13;0.65;;;12.40;99.90;;;;;;10090837;28;20039;-58
2022/12/29 02:49:48;;;;;;;1.48;0.70;;;12.40;99.90;;;;;;10089081;28;20411;-57
2022/12/29 02:54:41;;;;;;;1.70;0.90;;;12.40;99.90;;;;;;10091369;28;20026;-59
2022/12/29 02:59:32;;;;;;;1.95;0.60;;;12.40;99.90;;;;;;10076686;28;20522;-56
2022/12/29 03:04:41;;;;;;;2.67;0.95;;;12.40;99.90;;;;;;10083034;28;20021;-56
2022/12/29 03:09:43;;;;;;;1.30;0.77;;;12.40;99.90;;;;;;10080878;28;20029;-58
2022/12/29 03:20:07;;;;;;;1.13;0.70;;;12.30;99.90;;;;;;10094228;28;20124;-57
2022/12/29 03:25:21;;;;;;;1.38;0.95;;;12.20;99.90;;;;;;10096479;28;20040;-59
2022/12/29 03:30:12;;;;;;;1.40;1.00;;;12.20;99.90;;;;;;10090452;28;20029;-59
2022/12/29 03:35:05;;;;;;;1.73;0.73;;;12.20;99.90;;;;;;10089648;28;20027;-61
2022/12/29 03:39:56;;;;;;;1.35;0.77;;;12.10;99.90;;;;;;10080493;28;20515;-58
2022/12/29 03:44:47;;;;;;;1.40;0.95;;;12.10;99.90;;;;;;10094412;28;20794;-57
2022/12/29 03:49:38;;;;;;;1.25;1.10;;;12.10;99.90;;;;;;10096557;28;20099;-58
2022/12/29 03:54:29;;;;;;;2.22;0.80;;;12.00;99.90;;;;;;10091911;28;20025;-58
2022/12/29 03:59:20;;;;;;;2.30;1.00;;;12.00;99.90;;;;;;10095060;28;20391;-63
2022/12/29 04:04:10;;;;;;;0.70;0.60;;;12.00;99.90;;;;;;10099905;28;20056;-58
2022/12/29 04:09:01;;;;;;;2.40;0.90;;;12.00;99.90;;;;;;10090022;28;20040;-58
2022/12/29 04:13:52;;;;;;;2.78;0.90;;;12.00;99.90;;;;;;10100638;28;20021;-59
2022/12/29 04:18:42;;;;;;;1.35;1.08;;;12.10;99.90;;;;;;10100060;28;20376;-59
2022/12/29 04:23:36;;;;;;;1.80;0.80;;;12.10;99.90;;;;;;10100338;28;20021;-60
2022/12/29 04:28:28;;;;;;;0.93;0.70;;;12.20;99.90;;;;;;10098419;28;20087;-59
2022/12/29 04:33:19;;;;;;;1.15;0.68;;;12.30;99.90;;;;;;10102785;28;20030;-59
2022/12/29 04:38:10;;;;;;;2.15;0.77;;;12.30;99.90;;;;;;10099722;28;20223;-61
2022/12/29 04:43:01;;;;;;;2.13;0.75;;;12.30;99.90;;;;;;10098397;28;20032;-61
2022/12/29 04:47:52;;;;;;;1.48;0.95;;;12.40;99.90;;;;;;10099080;28;20025;-59
2022/12/29 04:52:42;;;;;;;1.50;1.40;;;12.40;99.90;;;;;;10097727;28;20041;-58
2022/12/29 04:57:33;;;;;;;3.10;0.90;;;12.40;99.90;;;;;;10098182;28;20483;-59
2022/12/29 05:02:23;;;;;;;1.08;0.90;;;12.40;99.90;;;;;;10088262;28;20031;-59
2022/12/29 05:07:14;;;;;;;1.58;0.77;;;12.40;99.90;;;;;;10097907;28;20044;-63
2022/12/29 05:12:06;;;;;;;2.20;0.93;;;12.30;99.90;;;;;;10098467;28;20050;-61
2022/12/29 05:16:56;;;;;;;3.08;0.93;;;12.30;99.90;;;;;;10099044;28;20029;-59
2022/12/29 05:21:47;;;;;;;3.42;1.10;;;12.30;99.90;;;;;;10098184;28;20411;-59
2022/12/29 05:26:38;;;;;;;2.17;0.85;;;12.30;99.90;;;;;;10096492;28;20032;-60
2022/12/29 05:31:28;;;;;;;2.28;1.45;;;12.20;99.90;;;;;;10099027;28;20505;-59
2022/12/29 05:36:19;;;;;;;2.25;0.90;;;12.20;99.90;;;;;;10096626;28;20032;-56
2022/12/29 05:41:10;;;;;;;2.08;1.30;;;12.20;99.90;;;;;;10097240;28;20499;-57
2022/12/29 05:46:02;;;;;;;2.67;1.25;;;12.30;99.90;;;;;;10097077;28;20402;-60
2022/12/29 05:50:53;;;;;;;2.22;1.00;;;12.30;99.90;;;;;;10096141;28;20127;-60
2022/12/29 05:55:46;;;;;;;3.25;1.20;;;12.30;99.90;;;;;;10080867;28;20103;-57
2022/12/29 06:00:37;;;;;;;1.15;0.90;;;12.50;99.90;;;;;;10085718;28;20029;-59
2022/12/29 06:05:27;;;;;;;0.93;0.70;;;12.50;99.90;;;;;;10094668;28;20120;-58
2022/12/29 06:10:18;;;;;;;3.28;2.08;;;12.50;99.90;;;;;;10080469;28;20121;-56
2022/12/29 06:15:09;;;;;;;2.30;0.90;;;12.50;99.90;;;;;;10091203;28;20025;-57
2022/12/29 06:20:00;;;;;;;1.98;1.13;;;12.60;99.90;;;;;;10087869;28;20071;-58
2022/12/29 06:24:50;;;;;;;1.50;1.10;;;12.60;99.90;;;;;;10084539;28;20504;-57
2022/12/29 06:29:42;;;;;;;1.90;0.88;;;12.60;99.90;;;;;;10081329;28;20033;-63
2022/12/29 06:34:33;;;;;;;2.38;1.00;;;12.60;99.90;;;;;;10076789;28;20121;-59
2022/12/29 06:39:23;;;;;;;1.85;1.30;;;12.60;99.90;;;;;;10088890;28;20135;-60
2022/12/29 06:44:14;;;;;;;1.40;1.13;;;12.50;99.90;;;;;;10092511;28;20558;-62
2022/12/29 06:49:05;;;;;;;2.50;1.10;;;12.50;99.90;;;;;;10089009;28;20049;-56
2022/12/29 06:53:55;;;;;;;3.50;1.13;;;12.40;99.90;;;;;;10090649;28;20029;-60
2022/12/29 06:58:46;;;;;;;2.53;1.55;;;12.40;99.90;;;;;;10084353;28;20025;-57
2022/12/29 07:03:36;;;;;;;2.00;1.20;;;12.50;99.90;;;;;;10088976;28;20055;-58
2022/12/29 07:08:27;;;;;;;1.73;1.10;;;12.50;99.90;;;;;;10081979;28;20537;-58
2022/12/29 07:13:18;;;;;;;1.88;1.00;;;12.50;99.90;;;;;;10091693;28;20040;-64
2022/12/29 07:18:08;;;;;;;1.60;1.00;;;12.40;99.90;;;;;;10088393;28;20029;-61
2022/12/29 07:22:59;;;;;;;1.23;1.00;;;12.50;99.90;;;;;;10085204;28;20116;-66
2022/12/29 07:27:50;;;;;;;3.13;1.30;;;12.60;99.90;;;;;;10091343;28;20072;-57
2022/12/29 07:32:41;;;;;;;2.83;1.15;;;12.50;99.90;;;;;;10087803;28;20111;-55
2022/12/29 07:37:31;;;;;;;1.55;0.98;;;12.50;99.90;;;;;;10090167;28;20048;-60
2022/12/29 07:42:22;;;;;;;4.40;1.58;;;12.60;99.90;;;;;;10082106;28;20028;-57
2022/12/29 07:47:13;;;;;;;1.92;1.15;;;12.60;99.90;;;;;;10089103;28;20041;-62
2022/12/29 07:52:03;;;;;;;5.38;1.55;;;12.60;99.90;;;;;;10087996;28;20084;-63
2022/12/29 07:56:54;;;;;;;2.55;1.60;;;12.60;99.90;;;;;;10092636;28;20029;-59
2022/12/29 08:01:45;;;;;;;1.95;0.95;;;12.60;99.90;;;;;;10079008;28;20025;-58
2022/12/29 08:06:37;;;;;;;1.88;1.02;;;12.60;99.90;;;;;;10088684;28;20774;-66
2022/12/29 08:11:28;;;;;;;4.38;1.45;;;12.70;99.90;;;;;;10101268;28;20025;-62
2022/12/29 08:16:18;;;;;;;3.03;1.42;;;12.70;99.90;;;;;;10095566;28;20266;-61
2022/12/29 08:21:09;;;;;;;3.38;1.23;;;12.70;99.90;;;;;;10095798;28;20025;-56
2022/12/29 08:26:02;;;;;;;3.50;1.40;;;12.70;99.90;;;;;;10093426;28;20032;-57
2022/12/29 08:30:53;;;;;;;2.03;1.48;;;12.70;99.90;;;;;;10085150;28;20104;-57
2022/12/29 08:35:44;;;;;;;4.97;1.23;;;12.70;99.90;;;;;;10084366;28;20132;-57
2022/12/29 08:40:35;;;;;;;2.28;1.33;;;12.70;99.90;;;;;;10085074;28;20403;-59
2022/12/29 08:45:25;;;;;;;1.85;0.93;;;12.80;99.90;;;;;;10095378;28;20067;-56
2022/12/29 08:50:16;;;;;;;2.88;1.35;;;12.80;99.90;;;;;;10096341;28;20140;-57
2022/12/29 08:55:07;;;;;;;4.15;2.03;;;12.90;99.90;;;;;;10083534;28;20032;-56
2022/12/29 08:59:57;;;;;;;2.08;1.15;;;13.00;99.90;;;;;;10093543;28;20521;-60
2022/12/29 09:04:48;;;;;;;1.85;1.00;;;13.10;99.90;;;;;;10081459;28;20022;-61
2022/12/29 09:09:38;;;;;;;1.48;1.27;;;13.30;99.90;;;;;;10092329;28;20024;-57
2022/12/29 09:14:29;;;;;;;2.55;1.17;;;13.30;99.90;;;;;;10093331;28;20024;-59
2022/12/29 09:19:20;;;;;;;4.38;1.20;;;13.40;99.90;;;;;;10090807;28;20026;-62
2022/12/29 09:24:10;;;;;;;1.83;1.42;;;13.40;99.90;;;;;;10091396;28;20028;-57
2022/12/29 09:29:01;;;;;;;5.15;1.20;;;13.50;99.90;;;;;;10088284;28;20045;-61
2022/12/29 09:33:51;;;;;;;1.20;1.10;;;13.50;99.90;;;;;;10084699;28;20021;-58
2022/12/29 09:38:42;;;;;;;1.23;0.88;;;13.50;99.90;;;;;;10072208;28;20444;-58
2022/12/29 09:44:03;;;;;;;2.47;0.90;;;13.40;99.90;;;;;;10106866;28;20033;-56
2022/12/29 09:49:14;;;;;;;4.63;1.20;;;13.40;99.90;;;;;;10084944;28;20399;-58
2022/12/29 09:54:26;;;;;;;4.85;1.33;;;13.40;99.90;;;;;;10088251;28;20025;-57
2022/12/29 09:59:26;;;;;;;4.53;1.25;;;13.50;99.90;;;;;;10077855;28;20110;-60
2022/12/29 10:04:16;;;;;;;1.40;1.00;;;13.40;99.90;;;;;;10082677;28;20021;-64
2022/12/29 10:09:32;;;;;;;3.33;1.25;;;13.40;99.90;;;;;;10085601;28;20032;-64
2022/12/29 10:14:35;;;;;;;6.97;2.25;;;13.40;99.90;;;;;;10092435;28;20032;-59
2022/12/29 10:19:52;;;;;;;2.35;1.10;;;13.40;99.90;;;;;;10088306;28;20103;-67
2022/12/29 10:24:44;;;;;;;4.80;1.65;;;13.70;99.90;;;;;;10086860;28;20105;-67
2022/12/29 10:29:40;;;;;;;1.83;1.08;;;13.90;99.90;;;;;;10080688;28;20042;-60
2022/12/29 10:34:37;;;;;;;1.77;1.10;;;14.00;99.90;;;;;;10097682;28;20119;-58
2022/12/29 10:39:38;;;;;;;1.33;0.77;;;14.00;99.90;;;;;;10081943;28;20017;-60
2022/12/29 10:44:31;;;;;;;2.95;0.88;;;14.00;99.90;;;;;;10079293;28;20060;-61
2022/12/29 10:49:25;;;;;;;2.05;0.70;;;14.00;99.90;;;;;;10084778;28;20147;-59
2022/12/29 10:54:23;;;;;;;1.10;1.00;;;13.90;99.90;;;;;;10075459;28;20029;-60
2022/12/29 10:59:23;;;;;;;0.73;0.40;;;13.70;99.90;;;;;;10085684;28;20032;-62
2022/12/29 11:04:31;;;;;;;1.15;1.05;;;13.50;99.90;;;;;;10082854;28;20021;-65
2022/12/29 11:09:27;;;;;;;1.40;0.90;;;13.40;99.90;;;;;;10094715;28;20121;-72
2022/12/29 11:14:25;;;;;;;2.90;0.90;;;13.40;99.90;;;;;;10094297;28;20564;-71
2022/12/29 11:19:45;;;;;;;0.95;0.55;;;13.60;99.90;;;;;;10087943;28;20029;-63
2022/12/29 11:24:44;;;;;;;1.80;0.73;;;13.80;99.90;;;;;;10075178;28;20045;-65
2022/12/29 11:29:41;;;;;;;2.80;1.30;;;14.00;99.90;;;;;;10104403;28;20454;-62
2022/12/29 11:34:34;;;;;;;2.28;1.15;;;14.20;99.90;;;;;;10070505;28;20102;-64
2022/12/29 11:39:33;;;;;;;1.38;1.20;;;14.30;99.90;;;;;;10106019;28;20029;-68
2022/12/29 11:44:25;;;;;;;1.75;0.90;;;14.40;99.90;;;;;;10100535;28;20013;-61
2022/12/29 11:49:22;;;;;;;3.90;1.60;;;14.40;99.90;;;;;;10092678;28;20053;-65
2022/12/29 11:54:22;;;;;;;2.15;1.40;;;14.40;99.90;;;;;;10098153;28;20025;-62
2022/12/29 11:59:31;;;;;;;6.45;1.55;;;14.40;99.90;;;;;;10091464;28;20033;-61
2022/12/29 12:04:24;;;;;;;3.95;1.02;;;14.60;99.90;;;;;;10101486;28;20036;-60
2022/12/29 12:09:33;;;;;;;2.20;1.13;;;14.60;99.90;;;;;;10101211;28;20739;-61
2022/12/29 12:14:34;;;;;;;2.38;1.80;;;14.50;99.90;;;;;;10088019;28;20542;-60
2022/12/29 12:19:52;;;;;;;2.10;1.40;;;14.60;99.90;;;;;;10094719;28;20053;-59
2022/12/29 12:24:55;;;;;;;2.53;1.13;;;14.50;99.90;;;;;;10094894;28;20017;-62
2022/12/29 12:29:55;;;;;;;1.40;1.10;;;14.40;99.90;;;;;;10088205;28;20035;-59
2022/12/29 12:34:48;;;;;;;2.22;1.48;;;14.30;99.90;;;;;;10091090;28;20023;-59
2022/12/29 12:39:52;;;;;;;3.55;1.55;;;14.20;99.90;;;;;;10088629;28;20029;-59
2022/12/29 12:45:13;;;;;;;1.67;1.05;;;14.20;99.90;;;;;;10088750;28;20177;-58
2022/12/29 12:50:12;;;;;;;4.28;1.35;;;14.00;99.90;;;;;;10091276;28;20055;-60
2022/12/29 12:55:21;;;;;;;3.42;1.70;;;14.10;99.90;;;;;;10085654;28;20037;-60
2022/12/29 13:00:17;;;;;;;1.52;1.02;;;14.10;99.90;;;;;;10088525;28;20098;-59
2022/12/29 13:05:32;;;;;;;4.90;1.50;;;14.00;99.90;;;;;;10079749;28;20018;-60
2022/12/29 13:10:46;;;;;;;1.30;1.00;;;14.00;99.90;;;;;;10086070;28;20048;-59
2022/12/29 13:15:53;;;;;;;2.13;1.27;;;14.20;99.90;;;;;;10092338;28;20028;-57
2022/12/29 13:20:54;;;;;;;2.67;1.77;;;14.50;99.90;;;;;;10082736;28;20029;-62
2022/12/29 13:25:54;;;;;;;2.83;1.67;;;14.70;99.90;;;;;;10081762;28;20033;-63
2022/12/29 13:30:53;;;;;;;2.97;1.25;;;14.60;99.90;;;;;;10077593;28;20025;-62
2022/12/29 13:36:00;;;;;;;3.75;2.08;;;14.50;99.90;;;;;;10082321;28;20662;-61
2022/12/29 13:40:56;;;;;;;3.22;1.33;;;14.40;99.90;;;;;;10085912;28;20380;-62
2022/12/29 13:45:57;;;;;;;3.28;1.35;;;14.40;99.90;;;;;;10093112;28;20116;-61
2022/12/29 13:50:58;;;;;;;2.88;1.27;;;14.30;99.90;;;;;;10092956;28;20049;-62
2022/12/29 13:55:51;;;;;;;2.10;1.08;;;14.20;99.90;;;;;;10092200;28;20028;-62
2022/12/29 14:01:00;;;;;;;2.35;1.20;;;14.10;99.90;;;;;;10077260;28;20029;-60
2022/12/29 14:06:16;;;;;;;2.65;1.50;;;14.00;99.90;;;;;;10075571;28;20037;-59
2022/12/29 14:11:11;;;;;;;4.20;2.38;;;14.00;99.90;;;;;;10095388;28;20028;-60
2022/12/29 14:16:03;;;;;;;5.03;2.33;;;13.90;99.90;;;;;;10091807;28;20040;-61
2022/12/29 14:21:10;;;;;;;3.35;1.23;;;13.80;99.90;;;;;;10093379;28;20056;-59
2022/12/29 14:26:07;;;;;;;3.72;1.20;;;13.10;99.90;;;;;;10091297;28;20029;-59
2022/12/29 14:31:00;;;;;;;1.13;1.00;;;11.80;99.90;;;;;;10080415;28;20763;-59
2022/12/29 14:35:52;;;;;;;1.55;1.00;;;11.70;99.90;;;;;;10074382;28;20067;-62
2022/12/29 14:40:44;;;;;;;1.63;0.90;;;11.80;99.90;;;;;;10083466;28;20031;-61
2022/12/29 14:45:37;;;;;;;1.45;0.82;;;11.90;99.90;;;;;;10089623;28;20052;-62
2022/12/29 14:50:36;;;;;;;2.65;0.70;;;12.00;99.90;;;;;;10090671;28;20095;-58
2022/12/29 14:55:49;;;;;;;3.88;1.40;;;12.10;99.90;;;;;;10088854;28;20038;-62
2022/12/29 15:00:41;;;;;;;2.25;1.55;;;12.20;99.90;;;;;;10074137;28;20037;-63
2022/12/29 15:05:34;;;;;;;1.25;0.90;;;12.10;99.90;;;;;;10083721;28;20339;-65
2022/12/29 15:10:32;;;;;;;1.42;0.95;;;12.10;99.90;;;;;;10084224;28;20599;-65
2022/12/29 15:15:26;;;;;;;2.83;0.68;;;12.10;99.90;;;;;;10101065;28;20056;-63
2022/12/29 15:20:22;;;;;;;2.72;1.00;;;12.10;99.90;;;;;;10097049;28;20438;-60
2022/12/29 15:25:15;;;;;;;;;;;12.10;99.90;;;;;;10101065;28;20021;-64
2022/12/29 15:30:13;;;;;;;1.35;0.70;;;12.00;99.90;;;;;;10088049;28;19916;-71
2022/12/29 15:35:34;;;;;;;2.17;0.85;;;12.00;99.90;;;;;;10093816;28;20024;-63
2022/12/29 15:40:31;;;;;;;1.08;0.57;;;12.00;99.90;;;;;;10086072;28;20030;-65
2022/12/29 15:45:29;;;;;;;1.95;1.00;;;12.00;99.90;;;;;;10094246;28;20514;-66
2022/12/29 15:50:32;;;;;;;1.70;1.00;;;12.00;99.90;;;;;;10092658;28;20126;-62
2022/12/29 15:55:33;;;;;;;2.63;0.82;;;12.00;99.90;;;;;;10094738;28;20131;-61
2022/12/29 16:00:30;;;;;;;3.65;1.00;;;11.90;99.90;;;;;;10091807;28;20503;-60
2022/12/29 16:05:21;;;;;;;1.88;1.02;;;11.90;99.90;;;;;;10103272;28;20045;-62
2022/12/29 16:10:42;;;;;;;1.58;0.75;;;11.80;99.90;;;;;;10086898;28;20025;-60
2022/12/29 16:15:33;;;;;;;2.58;1.05;;;11.90;99.90;;;;;;10087959;28;20116;-60
2022/12/29 16:20:40;;;;;;;1.25;0.88;;;11.80;99.90;;;;;;10096470;28;20545;-61
2022/12/29 16:25:37;;;;;;;3.17;1.10;;;11.80;99.90;;;;;;10094826;28;20033;-58
2022/12/29 16:30:30;;;;;;;3.90;1.40;;;11.80;99.90;;;;;;10097783;28;20034;-56
2022/12/29 16:36:01;;;;;;;1.38;0.93;;;11.80;99.90;;;;;;10087130;28;20376;-56
2022/12/29 16:40:52;;;;;;;2.95;0.85;;;11.70;99.90;;;;;;10054354;28;20554;-57
2022/12/29 16:45:46;;;;;;;2.10;0.80;;;11.80;99.90;;;;;;10090612;28;20472;-57
2022/12/29 16:50:38;;;;;;;3.10;1.20;;;11.80;99.90;;;;;;10094329;28;20483;-59
2022/12/29 16:55:29;;;;;;;2.35;1.33;;;11.70;99.90;;;;;;10091812;28;20029;-59
2022/12/29 17:00:26;;;;;;;1.80;0.80;;;11.70;99.90;;;;;;10097745;28;20507;-61
2022/12/29 17:05:18;;;;;;;4.30;1.13;;;11.60;99.90;;;;;;10086217;28;20670;-64
2022/12/29 17:10:09;;;;;;;1.25;0.90;;;11.50;99.90;;;;;;10104881;28;20164;-59
2022/12/29 17:15:01;;;;;;;1.63;0.88;;;11.30;99.90;;;;;;10091476;28;20021;-63
2022/12/29 17:19:55;;;;;;;2.33;0.90;;;11.10;99.90;;;;;;10087474;28;20502;-68
2022/12/29 17:24:46;;;;;;;1.52;0.70;;;11.10;99.90;;;;;;10079852;28;20033;-64
2022/12/29 17:29:39;;;;;;;0.98;0.60;;;11.10;99.90;;;;;;10068854;28;20134;-62
2022/12/29 17:34:31;;;;;;;3.30;1.08;;;11.20;99.90;;;;;;10100158;28;20514;-60
2022/12/29 17:39:21;;;;;;;2.38;1.17;;;11.20;99.90;;;;;;10094278;28;20495;-61
2022/12/29 17:44:17;;;;;;;1.20;0.77;;;11.10;99.90;;;;;;10096786;28;20056;-63
2022/12/29 17:49:17;;;;;;;1.65;0.80;;;10.90;99.90;;;;;;10097223;28;20060;-61
2022/12/29 17:54:20;;;;;;;1.85;1.17;;;10.80;99.90;;;;;;10092079;28;20120;-57
2022/12/29 17:59:12;;;;;;;2.70;1.30;;;10.70;99.90;;;;;;10081425;28;20020;-61
2022/12/29 18:04:03;;;;;;;2.38;1.08;;;10.70;99.90;;;;;;10075635;28;20054;-58
2022/12/29 18:08:54;;;;;;;2.28;1.10;;;10.70;99.90;;;;;;10071814;28;20140;-60
2022/12/29 18:13:44;;;;;;;1.25;0.80;;;10.80;99.90;;;;;;10082941;28;20025;-57
2022/12/29 18:18:35;;;;;;;3.55;0.90;;;10.80;99.90;;;;;;10096746;28;20141;-59
2022/12/29 18:23:31;;;;;;;0.82;0.77;;;10.80;99.90;;;;;;10092366;28;20044;-57
2022/12/29 18:28:23;;;;;;;2.05;1.27;;;10.80;99.90;;;;;;10087351;28;20037;-57
2022/12/29 18:33:16;;;;;;;3.50;1.38;;;10.80;99.90;;;;;;10081769;28;20032;-64
2022/12/29 18:38:07;;;;;;;2.45;1.15;;;10.70;99.90;;;;;;10086570;28;20025;-60
2022/12/29 18:42:58;;;;;;;1.77;1.20;;;10.70;99.90;;;;;;10081240;28;20044;-61
2022/12/29 18:47:48;;;;;;;1.98;1.42;;;10.70;99.90;;;;;;10088082;28;20067;-65
2022/12/29 18:52:39;;;;;;;2.13;0.98;;;10.70;99.90;;;;;;10096424;28;20060;-59
2022/12/29 18:57:31;;;;;;;3.97;1.60;;;10.70;99.90;;;;;;10089035;28;20333;-58
2022/12/29 19:02:24;;;;;;;3.28;1.55;;;10.70;99.90;;;;;;10082879;28;20304;-61
2022/12/29 19:07:15;;;;;;;3.22;1.20;;;10.70;99.90;;;;;;10087550;28;20546;-58
2022/12/29 19:12:05;;;;;;;1.23;1.05;;;10.70;99.90;;;;;;10078156;28;20112;-60
2022/12/29 19:16:56;;;;;;;2.15;1.15;;;10.60;99.90;;;;;;10069803;28;20060;-64
2022/12/29 19:21:47;;;;;;;3.97;1.08;;;10.50;99.90;;;;;;10084254;28;20029;-60
2022/12/29 19:26:39;;;;;;;0.93;0.70;;;10.50;99.90;;;;;;10093752;28;20056;-58
2022/12/29 19:31:30;;;;;;;1.75;1.38;;;10.50;99.90;;;;;;10091417;28;20175;-56
2022/12/29 19:36:21;;;;;;;1.92;0.80;;;10.50;99.90;;;;;;10082212;28;20164;-58
2022/12/29 19:41:12;;;;;;;2.47;0.88;;;10.40;99.90;;;;;;10069519;28;20272;-63
2022/12/29 19:46:13;;;;;;;1.73;0.82;;;10.40;99.90;;;;;;10087825;28;20425;-61
2022/12/29 19:51:08;;;;;;;2.70;0.95;;;10.40;99.90;;;;;;10091526;28;20511;-66
2022/12/29 19:56:02;;;;;;;1.25;0.90;;;10.40;99.90;;;;;;10079469;28;20116;-65
2022/12/29 20:00:53;;;;;;;1.63;0.77;;;10.40;99.90;;;;;;10090228;28;20029;-57
2022/12/29 20:05:47;;;;;;;1.30;0.63;;;10.50;99.90;;;;;;10084121;28;20029;-63
2022/12/29 20:10:38;;;;;;;4.25;0.82;;;10.60;99.90;;;;;;10077987;28;20044;-58
2022/12/29 20:15:29;;;;;;;3.47;1.40;;;10.70;99.90;;;;;;10077254;28;20037;-60
2022/12/29 20:20:20;;;;;;;2.85;1.23;;;10.70;99.90;;;;;;10070895;28;20025;-61
2022/12/29 20:25:10;;;;;;;2.35;1.40;;;10.70;99.90;;;;;;10107473;28;20111;-66
2022/12/29 20:30:01;;;;;;;4.88;1.40;;;10.70;99.90;;;;;;10100303;28;20040;-62
2022/12/29 20:34:52;;;;;;;2.30;1.70;;;10.60;99.90;;;;;;10091018;28;20029;-58
2022/12/29 20:39:44;;;;;;;2.63;1.73;;;10.60;99.90;;;;;;10086051;28;20025;-63
2022/12/29 20:44:35;;;;;;;3.83;1.08;;;10.60;99.90;;;;;;10086809;28;20445;-64
2022/12/29 20:49:26;;;;;;;3.33;0.77;;;10.60;99.90;;;;;;10100042;28;20388;-62
2022/12/29 20:54:18;;;;;;;3.25;1.55;;;10.60;99.90;;;;;;10098841;28;20507;-58
2022/12/29 20:59:09;;;;;;;2.17;1.27;;;10.60;99.90;;;;;;10094137;28;20040;-64
2022/12/29 21:04:00;;;;;;;1.77;0.88;;;10.60;99.90;;;;;;10092738;28;20114;-59
2022/12/29 21:08:52;;;;;;;2.10;1.00;;;10.70;99.90;;;;;;10098852;28;20152;-63
2022/12/29 21:13:43;;;;;;;2.63;1.42;;;10.60;99.90;;;;;;10098541;28;20029;-64
2022/12/29 21:18:34;;;;;;;1.35;0.80;;;10.50;99.90;;;;;;10089705;28;20488;-63
2022/12/29 21:23:26;;;;;;;1.17;0.55;;;10.60;99.90;;;;;;10098587;28;20035;-64
2022/12/29 21:28:17;;;;;;;1.35;0.52;;;10.50;99.90;;;;;;10098147;28;20124;-59
2022/12/29 21:33:07;;;;;;;2.13;0.70;;;10.50;99.90;;;;;;10098522;28;20435;-61
2022/12/29 21:37:58;;;;;;;0.93;0.55;;;10.60;99.90;;;;;;10098780;28;20333;-58
2022/12/29 21:42:49;;;;;;;2.58;0.90;;;10.60;99.90;;;;;;10097873;28;20116;-60
2022/12/29 21:52:49;;;;;;;55.00;27.42;;;10.50;99.90;;;;;;10087137;28;20060;-62
2022/12/29 22:13:07;;;;;;;2.60;1.17;;;10.50;99.90;;;;;;10092771;28;20048;-61
2022/12/29 22:17:59;;;;;;;2.70;1.48;;;10.40;99.90;;;;;;10096226;28;20518;-63
2022/12/29 22:22:50;;;;;;;4.47;1.02;;;10.40;99.90;;;;;;10099986;28;20020;-66
2022/12/29 22:27:41;;;;;;;1.92;1.10;;;10.40;99.90;;;;;;10095411;28;20032;-59
2022/12/29 22:32:33;;;;;;;1.45;0.57;;;10.40;99.90;;;;;;10092862;28;20028;-61
2022/12/29 22:37:23;;;;;;;1.23;0.73;;;10.50;99.90;;;;;;10094940;28;20028;-63
2022/12/29 22:42:14;;;;;;;0.85;0.52;;;10.40;99.90;;;;;;10095486;28;20024;-62
2022/12/29 22:47:05;;;;;;;1.15;0.50;;;10.40;99.90;;;;;;10095083;28;20518;-59
2022/12/29 22:51:55;;;;;;;1.65;0.60;;;10.40;99.90;;;;;;10093857;28;20560;-59
2022/12/29 22:56:46;;;;;;;1.58;0.65;;;10.40;99.90;;;;;;10094679;28;20511;-59
2022/12/29 23:01:37;;;;;;;2.17;0.90;;;10.40;99.90;;;;;;10093188;28;20407;-58
2022/12/29 23:06:28;;;;;;;1.70;0.85;;;10.40;99.90;;;;;;10090458;28;20044;-54
2022/12/29 23:11:19;;;;;;;1.50;0.90;;;10.30;99.90;;;;;;10093793;28;20029;-56
2022/12/29 23:16:10;;;;;;;3.58;1.40;;;10.30;99.90;;;;;;10093268;28;20033;-59
2022/12/29 23:21:00;;;;;;;2.42;1.30;;;10.30;99.90;;;;;;10094728;28;20017;-61
2022/12/29 23:25:51;;;;;;;2.38;1.38;;;10.30;99.90;;;;;;10094575;28;20025;-57
2022/12/29 23:30:42;;;;;;;5.07;1.60;;;10.30;99.90;;;;;;10094811;28;20826;-57
2022/12/29 23:35:32;;;;;;;2.97;0.98;;;10.20;99.90;;;;;;10102715;28;20498;-55
2022/12/29 23:40:26;;;;;;;1.77;1.17;;;10.20;99.90;;;;;;10103520;28;20063;-60
2022/12/29 23:45:17;;;;;;;3.20;1.50;;;10.20;99.90;;;;;;10101234;28;20056;-60
2022/12/29 23:50:08;;;;;;;2.65;1.60;;;10.20;99.90;;;;;;10105566;28;20052;-58
2022/12/29 23:54:58;;;;;;;2.55;1.20;;;10.20;99.90;;;;;;10102599;28;20032;-60
2022/12/29 23:59:49;;;;;;;1.00;0.90;;;10.20;99.90;;;;;;10101271;28;20089;-62
